Centre Hospitalier Heliport

FR-0029 · Allier, Auvergne-Rhône-Alpes, France

METAR anciennes FR-0029 · Centre Hospitalier Heliport

Tu vois ci-dessous les METAR des derniers jours. Sélectionne une année pour parcourir les METAR plus anciens, à partir de l'année 2007.

15 juillet 2024

Temps Code Temps Temp. Vue Base cloud Vent METAR/SPECI
03:00
V
16 °C 10 km+ - 360° 360° 0 kt METAR LFLN 150100Z AUTO 00000KT CAVOK 16/15 Q1013
02:30
V
16 °C 10 km+ - 060° 060° 2 kt METAR LFLN 150030Z AUTO 06002KT CAVOK 16/15 Q1013
02:00
V
17 °C 10 km+ - 360° 360° 0 kt METAR LFLN 150000Z AUTO 00000KT CAVOK 17/15 Q1013
01:30
V
17 °C 10 km+ - 090° 090° 2 kt METAR LFLN 142330Z AUTO 09002KT CAVOK 17/16 Q1013
01:00
V
17 °C 10 km+ - 360° 360° 2 kt METAR LFLN 142300Z AUTO 36002KT CAVOK 17/16 Q1013
00:30
V
17 °C 10 km+ - 360° 360° 0 kt METAR LFLN 142230Z AUTO 00000KT CAVOK 17/15 Q1013
00:00
V
18 °C 10 km+ - 090° 090° 2 kt METAR LFLN 142200Z AUTO 09002KT CAVOK 18/16 Q1013

14 juillet 2024

Temps Code Temps Temp. Vue Base cloud Vent METAR/SPECI
23:30
V
18 °C 10 km+ - 360° 360° 2 kt METAR LFLN 142130Z AUTO 36002KT CAVOK 18/16 Q1013
23:00
V
18 °C 10 km+ - 360° 360° 0 kt METAR LFLN 142100Z AUTO 00000KT CAVOK 18/16 Q1013
22:30
V
19 °C 10 km+ - 090° 090° 3 kt METAR LFLN 142030Z AUTO 09003KT CAVOK 19/16 Q1013
22:00
L
20 °C 1,3 km - 040° 040° 3 kt METAR LFLN 142000Z AUTO 04003KT 2400 1300 R33/P2000 BR NSC 20/16 Q1013
21:30
V
21 °C 10 km+ - 060° 060° 3 kt METAR LFLN 141930Z AUTO 06003KT CAVOK 21/16 Q1013
21:00
V
22 °C 10 km+ - 110° 110° 3 kt METAR LFLN 141900Z AUTO 11003KT CAVOK 22/15 Q1013 NOSIG
20:30
V
23 °C 10 km+ - 070° 070° 4 kt METAR LFLN 141830Z AUTO 07004KT CAVOK 23/15 Q1013 NOSIG
20:00
V
24 °C 10 km+ - 060° 060° 3 kt METAR LFLN 141800Z AUTO 06003KT 020V100 CAVOK 24/16 Q1013 NOSIG
19:30
V
23 °C 10 km+ - 060° 060° 4 kt METAR LFLN 141730Z AUTO 06004KT 040V100 CAVOK 23/16 Q1013 NOSIG
19:00
V
23 °C 10 km+ - 070° 070° 4 kt METAR LFLN 141700Z AUTO 07004KT CAVOK 23/16 Q1013 NOSIG
18:30
V
23 °C 10 km+ - 070° 070° 4 kt METAR LFLN 141630Z AUTO 07004KT CAVOK 23/15 Q1013 NOSIG
18:00
V
24 °C 10 km+ - 070° 070° 4 kt METAR LFLN 141600Z AUTO 07004KT CAVOK 24/16 Q1013 NOSIG
17:30
V
24 °C 10 km+ - 080° 080° 4 kt METAR LFLN 141530Z AUTO 08004KT 040V120 CAVOK 24/16 Q1013 NOSIG
17:00
V
24 °C 10 km+ - 050° 050° 4 kt METAR LFLN 141500Z AUTO 05004KT 340V110 CAVOK 24/15 Q1013 NOSIG
16:30
V
25 °C 10 km+ - 020° 020° 4 kt METAR LFLN 141430Z AUTO 02004KT 300V080 CAVOK 25/15 Q1013 NOSIG
16:00
V
25 °C 10 km+ - 030° 030° 6 kt METAR LFLN 141400Z AUTO 03006KT 360V060 CAVOK 25/15 Q1013 TEMPO FEW070TCU
15:30
V
24 °C 10 km+ - 010° 010° 5 kt METAR LFLN 141330Z AUTO 01005KT 350V050 CAVOK 24/15 Q1013 TEMPO FEW070TCU
15:00
V
24 °C 10 km+ - 030° 030° 3 kt METAR LFLN 141300Z AUTO 03003KT 350V070 CAVOK 24/15 Q1013 TEMPO FEW070TCU
14:30
V
25 °C 10 km+ - 080° 080° 3 kt METAR LFLN 141230Z AUTO 08003KT 360V160 CAVOK 25/15 Q1013 TEMPO FEW070TCU
14:00
V
25 °C 10 km+ - 120° 120° 4 kt METAR LFLN 141200Z AUTO 12004KT 080V150 CAVOK 25/14 Q1013 TEMPO FEW070TCU
13:30
V
23 °C 10 km+ - 100° 100° 5 kt METAR LFLN 141130Z AUTO 10005KT 070V130 CAVOK 23/13 Q1013 NOSIG
13:00
V
23 °C 10 km+ - 110° 110° 5 kt METAR LFLN 141100Z AUTO 11005KT 050V160 CAVOK 23/14 Q1013 NOSIG
12:30
V
23 °C 10 km+ - 130° 130° 4 kt METAR LFLN 141030Z AUTO 13004KT 080V170 CAVOK 23/14 Q1013 NOSIG
12:00
V
23 °C 10 km+ - 120° 120° 4 kt METAR LFLN 141000Z AUTO 12004KT 070V180 CAVOK 23/13 Q1014 NOSIG
11:30
V
22 °C 10 km+ - Var Var 3 kt METAR LFLN 140930Z AUTO VRB03KT CAVOK 22/13 Q1014 NOSIG
11:00
V
21 °C 10 km+ - 080° 080° 3 kt METAR LFLN 140900Z AUTO 08003KT 350V140 CAVOK 21/13 Q1014 NOSIG
10:30
V
21 °C 10 km+ - Var Var 2 kt METAR LFLN 140830Z AUTO VRB02KT CAVOK 21/14 Q1014 NOSIG
10:00
V
20 °C 10 km+ - 120° 120° 3 kt METAR LFLN 140800Z AUTO 12003KT 070V180 CAVOK 20/13 Q1014 NOSIG
09:30
V
19 °C 10 km+ - Var Var 1 kt METAR LFLN 140730Z AUTO VRB01KT CAVOK 19/14 Q1014 NOSIG
09:00
V
17 °C 10 km+ - Var Var 2 kt METAR LFLN 140700Z AUTO VRB02KT CAVOK 17/13 Q1014 NOSIG
08:30
V
15 °C 10 km+ - Var Var 1 kt METAR LFLN 140630Z AUTO VRB01KT CAVOK 15/13 Q1014 NOSIG
08:00
V
13 °C 10 km+ - Var Var 2 kt METAR LFLN 140600Z AUTO VRB02KT CAVOK 13/12 Q1014 NOSIG
07:30
V
12 °C 10 km+ - 360° 360° 0 kt METAR LFLN 140530Z AUTO 00000KT CAVOK 12/11 Q1014 NOSIG
07:00
V
10 °C 10 km+ - 010° 010° 1 kt METAR LFLN 140500Z AUTO 01001KT CAVOK 10/10 Q1014
06:30
V
9 °C 10 km+ - 060° 060° 2 kt METAR LFLN 140430Z AUTO 06002KT CAVOK 09/09 Q1014
06:00
V
9 °C 9 km - 180° 180° 2 kt METAR LFLN 140400Z AUTO 18002KT 9000 NSC 09/08 Q1014
05:30
V
10 °C 10 km+ - 360° 360° 0 kt METAR LFLN 140330Z AUTO 00000KT CAVOK 10/09 Q1014
05:00
V
10 °C 10 km+ - Var Var 1 kt METAR LFLN 140300Z AUTO VRB01KT CAVOK 10/09 Q1014
04:30
V
10 °C 10 km+ - 080° 080° 2 kt METAR LFLN 140230Z AUTO 08002KT CAVOK 10/10 Q1014
04:00
V
10 °C 10 km+ - 360° 360° 0 kt METAR LFLN 140200Z AUTO 00000KT CAVOK 10/09 Q1015
03:30
V
10 °C 10 km+ - 080° 080° 1 kt METAR LFLN 140130Z AUTO 08001KT CAVOK 10/10 Q1014
03:00
V
10 °C 10 km+ - 050° 050° 2 kt METAR LFLN 140100Z AUTO 05002KT CAVOK 10/10 Q1014
02:30
V
11 °C 10 km+ - 110° 110° 2 kt METAR LFLN 140030Z AUTO 11002KT CAVOK 11/10 Q1015
02:00
V
12 °C 10 km+ - Var Var 2 kt METAR LFLN 140000Z AUTO VRB02KT CAVOK 12/11 Q1014
01:30
V
11 °C 10 km+ - 360° 360° 0 kt METAR LFLN 132330Z AUTO 00000KT CAVOK 11/10 Q1015
01:00
V
12 °C 10 km+ - 360° 360° 0 kt METAR LFLN 132300Z AUTO 00000KT CAVOK 12/10 Q1014
00:30
V
13 °C 10 km+ - Var Var 1 kt METAR LFLN 132230Z AUTO VRB01KT CAVOK 13/12 Q1015
00:00
V
13 °C 10 km+ - 150° 150° 2 kt METAR LFLN 132200Z AUTO 15002KT CAVOK 13/11 Q1015

13 juillet 2024

Temps Code Temps Temp. Vue Base cloud Vent METAR/SPECI
23:30
V
13 °C 10 km+ - Var Var 2 kt METAR LFLN 132130Z AUTO VRB02KT CAVOK 13/11 Q1015
23:00
V
14 °C 10 km+ - 170° 170° 1 kt METAR LFLN 132100Z AUTO 17001KT CAVOK 14/11 Q1015
22:30
V
15 °C 10 km+ - 140° 140° 2 kt METAR LFLN 132030Z AUTO 14002KT CAVOK 15/11 Q1014
22:00
L
16 °C 750 m - 140° 140° 1 kt METAR LFLN 132000Z AUTO 14001KT 1300 0750 R33/1800U // NSC 16/10 Q1014
21:30
V
17 °C 10 km+ - 360° 360° 0 kt METAR LFLN 131930Z AUTO 00000KT CAVOK 17/10 Q1014
21:00
V
21 °C 10 km+ - Var Var 1 kt METAR LFLN 131900Z AUTO VRB01KT CAVOK 21/12 Q1014 NOSIG
20:30
V
22 °C 10 km+ - 360° 360° 2 kt METAR LFLN 131830Z AUTO 36002KT CAVOK 22/09 Q1014 NOSIG
20:00
V
22 °C 10 km+ - 330° 330° 5 kt METAR LFLN 131800Z AUTO 33005KT CAVOK 22/09 Q1014 NOSIG
19:30
V
22 °C 10 km+ - 300° 300° 5 kt METAR LFLN 131730Z AUTO 30005KT 260V340 CAVOK 22/08 Q1014 NOSIG
19:00
V
23 °C 10 km+ - Var Var 2 kt METAR LFLN 131700Z AUTO VRB02KT CAVOK 23/09 Q1014 NOSIG
18:30
V
22 °C 10 km+ - 160° 160° 3 kt METAR LFLN 131630Z AUTO 16003KT 090V220 CAVOK 22/09 Q1014 NOSIG
18:00
V
22 °C 10 km+ - 220° 220° 4 kt METAR LFLN 131600Z AUTO 22004KT 180V260 CAVOK 22/09 Q1014 NOSIG
17:30
V
22 °C 10 km+ - 250° 250° 3 kt METAR LFLN 131530Z AUTO 25003KT 210V340 CAVOK 22/09 Q1014 NOSIG
17:00
V
22 °C 10 km+ - 270° 270° 5 kt METAR LFLN 131500Z AUTO 27005KT 210V350 CAVOK 22/08 Q1015 NOSIG
16:30
V
22 °C 10 km+ - Var Var 4 kt METAR LFLN 131430Z AUTO VRB04KT CAVOK 22/09 Q1015 NOSIG
16:00
V
22 °C 10 km+ - Var Var 4 kt METAR LFLN 131400Z AUTO VRB04KT CAVOK 22/10 Q1015 NOSIG
15:30
V
21 °C 10 km+ - 260° 260° 5 kt METAR LFLN 131330Z AUTO 26005KT 210V290 CAVOK 21/09 Q1015 NOSIG
15:00
V
21 °C 10 km+ - 280° 280° 6 kt METAR LFLN 131300Z AUTO 28006KT 240V330 9999 FEW046 SCT056 21/11 Q1015 NOSIG
14:30
V
21 °C 10 km+ - 290° 290° 5 kt METAR LFLN 131230Z AUTO 29005KT 240V360 9999 SCT048 SCT066 21/10 Q1015 NOSIG
14:00
V
20 °C 10 km+ - 260° 260° 6 kt METAR LFLN 131200Z AUTO 26006KT 220V300 9999 FEW043 SCT064 20/10 Q1015 NOSIG
13:30
V
20 °C 10 km+ - 260° 260° 6 kt METAR LFLN 131130Z AUTO 26006KT 180V300 9999 FEW040 20/11 Q1015 NOSIG
13:00
V
20 °C 10 km+ - Var Var 3 kt METAR LFLN 131100Z AUTO VRB03KT 9999 FEW048 20/11 Q1015 NOSIG
12:30
V
19 °C 10 km+ - 240° 240° 4 kt METAR LFLN 131030Z AUTO 24004KT 140V310 9999 FEW036 19/10 Q1016 NOSIG
12:00
V
18 °C 10 km+ 3.500 ft 260° 260° 4 kt METAR LFLN 131000Z AUTO 26004KT 210V320 9999 FEW030 BKN035 BKN043 18/10 Q1016 NOSIG
11:30
V
18 °C 10 km+ 3.500 ft Var Var 3 kt METAR LFLN 130930Z AUTO VRB03KT 9999 SCT025 BKN035 18/11 Q1016 NOSIG
11:00
M
17 °C 10 km+ 2.100 ft Var Var 3 kt METAR LFLN 130900Z AUTO VRB03KT 9999 BKN021 BKN029 17/12 Q1016 NOSIG
10:30
M
17 °C 10 km+ 1.900 ft Var Var 3 kt METAR LFLN 130830Z AUTO VRB03KT 9999 BKN019 17/12 Q1016 NOSIG
10:00
V
16 °C 10 km+ - 280° 280° 3 kt METAR LFLN 130800Z AUTO 28003KT 240V360 9999 FEW018 16/12 Q1016 NOSIG
09:30
V
16 °C 10 km+ - 280° 280° 6 kt METAR LFLN 130730Z AUTO 28006KT 240V320 9999 FEW017 16/12 Q1016 NOSIG
09:00
V
16 °C 10 km+ - 290° 290° 7 kt METAR LFLN 130700Z AUTO 29007KT 260V320 CAVOK 16/12 Q1016 NOSIG
08:30
V
15 °C 10 km+ - 270° 270° 4 kt METAR LFLN 130630Z AUTO 27004KT 220V310 CAVOK 15/12 Q1016 NOSIG
08:00
V
15 °C 10 km+ - Var Var 3 kt METAR LFLN 130600Z AUTO VRB03KT CAVOK 15/12 Q1016 NOSIG
07:30
V
14 °C 10 km+ - 290° 290° 3 kt METAR LFLN 130530Z AUTO 29003KT 260V320 CAVOK 14/11 Q1016 NOSIG
07:00
V
13 °C 10 km+ 6.200 ft Var Var 3 kt METAR LFLN 130500Z AUTO VRB03KT 9999 FEW048 BKN062 BKN072 13/11 Q1016
06:30
V
12 °C 10 km+ 5.600 ft Var Var 2 kt METAR LFLN 130430Z AUTO VRB02KT 9999 FEW046 BKN056 12/11 Q1016
06:00
V
13 °C 10 km+ 6.800 ft 230° 230° 3 kt METAR LFLN 130400Z AUTO 23003KT 200V260 9999 FEW047 SCT056 BKN068 13/11 Q1016
05:30
V
13 °C 10 km+ 5.200 ft 230° 230° 4 kt METAR LFLN 130330Z AUTO 23004KT 9999 FEW045 BKN052 13/12 Q1016
05:00
V
13 °C 10 km+ 5.400 ft 220° 220° 3 kt METAR LFLN 130300Z AUTO 22003KT 170V280 9999 FEW043 BKN054 13/12 Q1016
04:30
V
13 °C 10 km+ 4.000 ft 160° 160° 2 kt METAR LFLN 130230Z AUTO 16002KT 9999 FEW033 BKN040 BKN062 13/12 Q1016
04:00
V
13 °C 10 km+ 4.000 ft Var Var 3 kt METAR LFLN 130200Z AUTO VRB03KT 9999 SCT030 BKN040 BKN068 13/12 Q1016
03:30
V
13 °C 10 km+ 7.800 ft 240° 240° 4 kt METAR LFLN 130130Z AUTO 24004KT 200V280 9999 FEW007 SCT035 OVC078 13/12 Q1016
03:00
V
11 °C 8 km - Var Var 1 kt METAR LFLN 130100Z AUTO VRB01KT 8000 NSC 11/11 Q1016
02:30
V
11 °C 8 km - 160° 160° 4 kt METAR LFLN 130030Z AUTO 16004KT 8000 NSC 11/10 Q1016
02:00
V
11 °C 10 km+ - 170° 170° 3 kt METAR LFLN 130000Z AUTO 17003KT 130V190 CAVOK 11/11 Q1016
01:30
V
11 °C 10 km+ - 360° 360° 0 kt METAR LFLN 122330Z AUTO /////KT CAVOK 11/11 Q1016
01:00
M
12 °C 7 km - 140° 140° 3 kt METAR LFLN 122300Z AUTO 14003KT 7000 NSC 12/11 Q1016
00:30
L
12 °C 600 m - 360° 360° 0 kt METAR LFLN 122230Z AUTO /////KT 1000 0600 R33/1200N BCFG NSC 12/12 Q1017
00:00
V
13 °C 10 km+ - Var Var 2 kt METAR LFLN 122200Z AUTO VRB02KT CAVOK 13/12 Q1017

12 juillet 2024

Temps Code Temps Temp. Vue Base cloud Vent METAR/SPECI
23:30
V
13 °C 10 km+ - Var Var 2 kt METAR LFLN 122130Z AUTO VRB02KT CAVOK 13/12 Q1017
23:00
V
14 °C 10 km+ - Var Var 2 kt METAR LFLN 122100Z AUTO VRB02KT CAVOK 14/13 Q1017
22:30
V
14 °C 10 km+ - 140° 140° 2 kt METAR LFLN 122030Z AUTO 14002KT CAVOK 14/13 Q1017
22:00
L
15 °C 1 km - 270° 270° 3 kt METAR LFLN 122000Z AUTO 27003KT 1400 1000 R33/1600N BR NSC 15/13 Q1017
21:30
V
16 °C 10 km+ - 280° 280° 4 kt METAR LFLN 121930Z AUTO 28004KT 250V310 CAVOK 16/13 Q1016
21:00
V
17 °C 10 km+ - 290° 290° 7 kt METAR LFLN 121900Z AUTO 29007KT CAVOK 17/13 Q1016 NOSIG
20:30
V
18 °C 10 km+ - 290° 290° 6 kt METAR LFLN 121830Z AUTO 29006KT 250V320 CAVOK 18/14 Q1016 NOSIG
20:00
V
17 °C 10 km+ - 290° 290° 6 kt METAR LFLN 121800Z AUTO 29006KT 260V330 CAVOK 17/13 Q1016 NOSIG
19:30
V
18 °C 10 km+ 5.200 ft 280° 280° 9 kt METAR LFLN 121730Z AUTO 28009KT 9999 FEW043 BKN052 18/14 Q1016 NOSIG
19:00
V
18 °C 10 km+ 3.600 ft 280° 280° 9 kt METAR LFLN 121700Z AUTO 28009KT 240V310 9999 FEW024 BKN036 OVC042 18/13 Q1016 TEMPO VRB15G25KT 2500 SHRA FEW035CB
18:30
V
19 °C 10 km+ 3.600 ft 290° 290° 9 kt METAR LFLN 121630Z AUTO 29009KT 250V320 9999 SCT024 BKN036 OVC045 19/14 Q1016 TEMPO VRB15G25KT 2500 SHRA FEW035CB
18:00
M
19 °C 10 km+ 2.800 ft 290° 290° 9 kt METAR LFLN 121600Z AUTO 29009KT 260V320 9999 SCT020 BKN028 BKN035 19/14 Q1016 TEMPO VRB15G25KT 2500 TSRA BKN012 BKN035CB
17:30
M
17 °C 10 km+ 1.900 ft 290° 290° 13 kt METAR LFLN 121530Z AUTO 29013KT 9999 BKN019 OVC026 17/14 Q1016 TEMPO VRB15G25KT 2500 TSRA BKN012 BKN035CB
17:00
M
17 °C 10 km+ 1.700 ft 300° 300° 13 kt METAR LFLN 121500Z AUTO 30013KT 9999 OVC017/// //////TCU 17/14 Q1015 TEMPO VRB15G25KT 2500 TSRA BKN012 BKN035CB
16:30
M
17 °C 10 km+ 1.300 ft 300° 300° 13 kt METAR LFLN 121430Z AUTO 30013KT 9999 -RA OVC013/// ///TCU 17/15 Q1015 TEMPO VRB15G25KT 2500 TSRA BKN010 BKN035CB
16:00
M
18 °C 10 km+ 1.300 ft 300° 300° 13 kt METAR LFLN 121400Z AUTO 30013KT 9999 BKN013/// BKN019/// BKN029/// //////CB 18/16 Q1015 TEMPO VRB15G25KT 2500 TSRA
15:30
M
19 °C 10 km+ 1.300 ft 300° 300° 10 kt METAR LFLN 121330Z AUTO 30010KT 270V330 9999 BKN013/// BKN019/// BKN110/// //////TCU 19/17 Q1014 TEMPO VRB15G25KT 2500 TSRA BKN035CB
15:00
M
19 °C 10 km+ 1.300 ft 300° 300° 8 kt METAR LFLN 121300Z AUTO 30008KT 260V330 9999 BKN013/// BKN034/// BKN076/// ///CB 19/17 Q1014 TEMPO VRB15G25KT 2500 TSRA BKN035CB
14:30
V
18 °C 10 km+ 7.600 ft 290° 290° 9 kt METAR LFLN 121230Z AUTO 29009KT 260V320 9999 RA SCT012/// SCT060/// BKN076/// ///CB 18/16 Q1014 TEMPO VRB15G25KT 2500 TSRA
14:00
V
19 °C 10 km+ 7.000 ft 310° 310° 10 kt METAR LFLN 121200Z AUTO 31010KT 280V340 9999 FEW013/// BKN070/// BKN086/// ///TCU 19/17 Q1014 TEMPO VRB15G25KT 2500 TSRA BKN035CB
13:30
V
20 °C 10 km+ 3.300 ft 310° 310° 13 kt METAR LFLN 121130Z AUTO 31013KT 9999 FEW028/// BKN033/// BKN048/// ///CB 20/17 Q1014 TEMPO VRB15G25KT 2500 TSRA
13:00
V
20 °C 10 km+ 7.400 ft 310° 310° 10 kt METAR LFLN 121100Z AUTO 31010KT 9999 FEW019/// SCT056/// BKN074/// //////CB 20/19 Q1014 TEMPO VRB15G25KT 2500 TSRA
12:30
V
21 °C 10 km+ 4.700 ft 310° 310° 16 kt METAR LFLN 121030Z AUTO 31016KT 9999 VCTS FEW031/// SCT039/// BKN047/// //////CB 21/17 Q1013 TEMPO VRB15G25KT 2500 TSRA
12:00
V
23 °C 10 km+ 5.400 ft 260° 260° 7 kt METAR LFLN 121000Z AUTO 26007KT 9999 FEW023/// BKN054/// BKN068/// ///CB 23/19 Q1013 TEMPO VRB15G25KT 2500 TSRA
11:30
V
23 °C 10 km+ 6.600 ft 260° 260° 10 kt METAR LFLN 120930Z AUTO 26010KT 220V290 9999 FEW032/// SCT044/// BKN066/// //////CB 23/17 Q1013 TEMPO VRB15G25KT 2500 TSRA
11:00
V
23 °C 10 km+ 3.300 ft 280° 280° 9 kt METAR LFLN 120900Z AUTO 28009KT 240V310 9999 BKN033/// BKN041/// //////CB 23/17 Q1013 TEMPO SHRA
10:30
V
23 °C 10 km+ - 270° 270° 9 kt METAR LFLN 120830Z AUTO 27009KT 240V300 9999 FEW032 23/18 Q1013 TEMPO SHRA FEW030CB
10:00
V
21 °C 10 km+ - 270° 270° 10 kt METAR LFLN 120800Z AUTO 27010KT 240V300 CAVOK 21/16 Q1014 TEMPO SHRA FEW030CB
09:30
V
21 °C 10 km+ - 280° 280° 8 kt METAR LFLN 120730Z AUTO 28008KT 240V310 CAVOK 21/17 Q1013 TEMPO SHRA FEW030CB
09:00
V
20 °C 10 km+ - Var Var 2 kt METAR LFLN 120700Z AUTO VRB02KT 9999 FEW001 SCT019 20/18 Q1013 TEMPO SHRA FEW030CB
08:30
M
20 °C 10 km+ 1.900 ft Var Var 2 kt METAR LFLN 120630Z AUTO VRB02KT 9999 BKN019 BKN046 20/18 Q1014 TEMPO SHRA FEW030CB
08:00
V
19 °C 10 km+ - Var Var 2 kt METAR LFLN 120600Z AUTO VRB02KT CAVOK 19/18 Q1013 NOSIG
Signaler les modifications